Airfield :
LOGIN :

Register | Disclaimer

   EN    FR    IT 

 










Legend :    VFR   Marginal VFR   IFR   Intensive IFR   Very Intensive IFR
Visi :
Ceiling :
>= 8 km
>= 3000ft
5 to 8 km
1000 to 3000 ft
1500m to 5 km
500 to 1000 ft
800 to 1500m
200 to 500 ft
< 800m
< 200 ft
Symbols :   Thunderstorms  Fog  Heavy snow  Heavy precipitations  Wind > 20 kt
SIGMETs :     Misc.  Thunderstorms  Icing  Turbulence  Mountain Waves  Volcanic Ashes






- Airport Elevation : 36 ft
- IATA code : RIX


EVRA - Riga

CURRENT METAR :
  • 250620Z 01006KT 9999 FEW013 20/15 Q1021 NOSIG

EXPIRED METARs :
  • 250550Z 36007KT 9999 SCT013 19/14 Q1021 NOSIG
  • 250520Z 33007KT 9999 SCT012 19/15 Q1021 NOSIG
  • 250450Z 34007KT CAVOK 19/15 Q1021 NOSIG
  • 250420Z 34007KT 300V360 CAVOK 18/15 Q1021 NOSIG
  • 250350Z 34004KT CAVOK 18/15 Q1020 NOSIG
  • 250320Z VRB02KT CAVOK 16/14 Q1020 NOSIG
  • 250250Z 00000KT CAVOK 15/14 Q1020 NOSIG
  • 250220Z VRB02KT 9999 MIFG NSC 13/13 Q1020 NOSIG
  • 250150Z 00000KT 9999 MIFG NSC 12/12 Q1020 NOSIG

TAF TAF EVRA
Valid from the 25 at 06:00 until the 26 at 06:00 UTC


250501Z 2506/2606 33005KT CAVOK



MET'MAP, your aeronautical weather chart ! - Copyright ORBIFLY December 2007 - Disclaimer

ORBIFLY MET'MAP TEAM :

Programming & Development : Alexandra Zaïnal
Original concept : Baudouin d'Aumeries
Technical & hardware support : Manuel Goepfert
Assistance : Marc-Olivier Méhu




SOURCES & CREDITS :

   NOAA